Time;durP1;ratioP1;P1;durP2;ratioP2;P2;SDS_P1;SDS_P2;PMS_P1;PMS_P2;Temp;Humidity;BMP_temperature;BMP_pressure;BME280_temperature;BME280_humidity;BME280_pressure;Samples;Min_cycle;Max_cycle;Signal;HPM_P1;HPM_P2
2022/12/07 00:01:43;;;;;;;0.10;0.10;;;3.70;99.90;;;3.50;100.00;100188.66;4975522;28;20255;-75
2022/12/07 00:04:14;;;;;;;0.10;0.10;;;3.60;99.90;;;3.49;100.00;100187.75;4986451;28;20247;-79
2022/12/07 00:06:45;;;;;;;0.10;0.10;;;3.60;99.90;;;3.51;100.00;100187.81;4989931;28;20232;-79
2022/12/07 00:09:15;;;;;;;0.10;0.10;;;3.60;99.90;;;3.54;100.00;100177.44;4984928;28;20225;-78
2022/12/07 00:11:43;;;;;;;0.10;0.10;;;3.70;99.90;;;3.54;100.00;100173.13;4984288;28;20232;-78
2022/12/07 00:14:13;;;;;;;0.10;0.10;;;3.70;99.90;;;3.52;100.00;100168.66;4979551;28;20320;-79
2022/12/07 00:16:41;;;;;;;0.10;0.10;;;3.80;99.90;;;3.45;100.00;100164.06;4983707;28;20232;-77
2022/12/07 00:19:11;;;;;;;0.10;0.10;;;3.60;99.90;;;3.43;100.00;100166.63;4966688;28;20248;-77
2022/12/07 00:21:38;;;;;;;0.10;0.10;;;3.60;99.90;;;3.42;100.00;100154.41;4982144;28;20232;-76
2022/12/07 00:26:47;;;;;;;0.10;0.10;;;3.60;99.90;;;3.40;100.00;100157.81;4978732;28;20235;-61
2022/12/07 00:29:24;;;;;;;0.35;0.35;;;3.60;99.90;;;3.38;100.00;100156.88;4954486;28;20307;-61
2022/12/07 00:31:51;;;;;;;0.20;0.20;;;3.50;99.90;;;3.37;100.00;100158.59;4951521;28;20232;-61
2022/12/07 00:34:21;;;;;;;0.20;0.20;;;3.50;99.90;;;3.31;100.00;100154.91;4956739;28;20239;-61
2022/12/07 00:36:49;;;;;;;0.10;0.10;;;3.50;99.90;;;3.25;100.00;100158.19;4986820;28;20283;-62
2022/12/07 00:39:16;;;;;;;0.10;0.10;;;3.40;99.90;;;3.22;100.00;100156.38;4975928;28;20251;-62
2022/12/07 00:41:44;;;;;;;0.10;0.10;;;3.40;99.90;;;3.26;100.00;100159.97;4959772;28;20720;-64
2022/12/07 00:44:11;;;;;;;0.10;0.10;;;3.40;99.90;;;3.24;100.00;100159.03;4943896;28;20327;-64
2022/12/07 00:46:38;;;;;;;0.15;0.15;;;3.40;99.90;;;3.25;100.00;100162.53;4957026;28;20370;-63
2022/12/07 00:49:05;;;;;;;0.10;0.10;;;3.40;99.90;;;3.26;100.00;100166.91;4963112;28;20224;-62
2022/12/07 00:51:32;;;;;;;0.10;0.10;;;3.40;99.90;;;3.20;100.00;100164.97;4960117;28;20269;-64
2022/12/07 00:53:59;;;;;;;0.10;0.10;;;3.30;99.90;;;3.20;100.00;100168.47;4942550;28;20260;-64
2022/12/07 00:56:28;;;;;;;0.10;0.10;;;3.30;99.90;;;3.29;100.00;100177.47;4948604;28;20243;-64
2022/12/07 00:58:58;;;;;;;0.10;0.10;;;3.40;99.90;;;3.28;100.00;100179.19;4947353;28;20251;-64
2022/12/07 01:01:30;;;;;;;0.10;0.10;;;3.40;99.90;;;3.33;100.00;100175.00;4982565;28;20236;-64
2022/12/07 01:03:57;;;;;;;0.20;0.20;;;3.40;99.90;;;3.33;100.00;100172.41;4949364;28;20772;-63
2022/12/07 01:06:25;;;;;;;0.10;0.10;;;3.50;99.90;;;3.32;100.00;100181.06;4961031;28;20233;-64
2022/12/07 01:08:53;;;;;;;0.10;0.10;;;3.50;99.90;;;3.36;100.00;100180.34;4943678;28;20252;-64
2022/12/07 01:11:24;;;;;;;0.20;0.20;;;3.50;99.90;;;3.39;100.00;100182.19;4965319;28;20806;-63
2022/12/07 01:13:57;;;;;;;0.10;0.10;;;3.50;99.90;;;3.33;100.00;100164.56;4963730;28;20662;-64
2022/12/07 01:16:27;;;;;;;0.10;0.10;;;3.50;99.90;;;3.31;100.00;100170.56;4960576;28;20224;-62
2022/12/07 01:18:56;;;;;;;0.10;0.10;;;3.50;99.90;;;3.25;100.00;100159.91;4988569;28;20244;-63
2022/12/07 01:21:27;;;;;;;0.10;0.10;;;3.40;99.90;;;3.26;100.00;100172.16;4959401;28;20230;-63
2022/12/07 01:23:54;;;;;;;0.10;0.10;;;3.40;99.90;;;3.24;100.00;100177.31;4964149;28;20307;-63
2022/12/07 01:26:24;;;;;;;0.90;0.90;;;3.40;99.90;;;3.16;100.00;100176.16;5008105;23;20231;-75
2022/12/07 01:28:51;;;;;;;0.10;0.10;;;3.30;99.90;;;3.12;100.00;100174.28;5003815;28;20235;-73
2022/12/07 01:31:21;;;;;;;0.10;0.10;;;3.30;99.90;;;3.15;100.00;100182.22;5004858;28;20310;-74
2022/12/07 01:33:52;;;;;;;0.10;0.10;;;3.30;99.90;;;3.16;100.00;100170.94;5004009;28;20255;-75
2022/12/07 01:36:21;;;;;;;0.10;0.10;;;3.50;99.90;;;3.18;100.00;100180.59;5004141;28;20311;-75
2022/12/07 01:38:56;;;;;;;0.17;0.17;;;3.30;99.90;;;3.22;100.00;100176.38;5011406;28;20235;-75
2022/12/07 01:41:27;;;;;;;0.30;0.30;;;3.50;99.90;;;3.19;100.00;100187.63;5005572;28;20227;-73
2022/12/07 01:44:06;;;;;;;0.10;0.10;;;3.30;99.90;;;3.24;100.00;100190.38;5009050;28;20277;-73
2022/12/07 01:46:33;;;;;;;0.10;0.10;;;3.40;99.90;;;3.22;100.00;100182.50;5006252;28;20306;-73
2022/12/07 01:49:03;;;;;;;0.20;0.20;;;3.50;99.90;;;3.26;100.00;100183.47;5009403;28;20240;-73
2022/12/07 01:51:30;;;;;;;0.20;0.20;;;3.50;99.90;;;3.25;100.00;100176.47;5006632;28;20256;-73
2022/12/07 01:53:58;;;;;;;0.10;0.10;;;3.50;99.90;;;3.22;100.00;100168.53;5007191;28;20331;-73
2022/12/07 01:56:28;;;;;;;0.30;0.30;;;3.40;99.90;;;3.24;100.00;100169.47;5006203;28;20258;-73
2022/12/07 01:58:57;;;;;;;0.30;0.30;;;3.40;99.90;;;3.24;100.00;100165.97;5006983;28;20291;-73
2022/12/07 02:01:25;;;;;;;0.10;0.10;;;3.40;99.90;;;3.30;100.00;100166.19;5008836;28;21057;-73
2022/12/07 02:03:52;;;;;;;0.10;0.10;;;3.50;99.90;;;3.32;100.00;100160.16;5004250;28;20247;-73
2022/12/07 02:06:24;;;;;;;0.10;0.10;;;3.60;99.90;;;3.34;100.00;100166.34;5005599;28;20259;-75
2022/12/07 02:08:52;;;;;;;0.10;0.10;;;3.50;99.90;;;3.32;100.00;100165.41;5004386;28;20318;-74
2022/12/07 02:11:20;;;;;;;0.10;0.10;;;3.50;99.90;;;3.37;100.00;100168.16;5004714;28;20315;-73
2022/12/07 02:13:48;;;;;;;0.10;0.10;;;3.50;99.90;;;3.47;100.00;100158.06;5005853;28;20265;-73
2022/12/07 02:16:54;;;;;;;0.10;0.10;;;3.50;99.90;;;3.46;100.00;100153.66;5005666;28;20320;-73
2022/12/07 02:19:50;;;;;;;0.40;0.40;;;3.60;99.90;;;3.56;100.00;100156.59;5005198;28;20247;-73
2022/12/07 02:23:00;;;;;;;0.10;0.10;;;3.70;99.90;;;3.51;100.00;100138.13;4989660;28;20228;-74
2022/12/07 02:26:03;;;;;;;0.10;0.10;;;3.70;99.90;;;3.47;100.00;100126.69;5094014;23;20237;-61
2022/12/07 02:28:55;;;;;;;0.20;0.20;;;3.60;99.90;;;3.38;100.00;100107.22;5010313;28;21060;-61
2022/12/07 02:31:25;;;;;;;0.10;0.10;;;3.60;99.90;;;3.35;100.00;100102.78;4992467;28;20246;-61
2022/12/07 02:34:17;;;;;;;0.10;0.10;;;3.50;99.90;;;3.46;100.00;100106.63;4996145;28;20239;-61
2022/12/07 02:36:52;;;;;;;0.10;0.10;;;3.60;99.90;;;3.39;100.00;100088.97;4995643;28;20346;-61
2022/12/07 02:39:31;;;;;;;0.10;0.10;;;3.60;99.90;;;3.30;100.00;100086.06;4995173;28;20241;-61
2022/12/07 02:42:10;;;;;;;0.35;0.35;;;3.50;99.90;;;3.31;100.00;100089.56;4989978;28;20694;-61
2022/12/07 02:44:37;;;;;;;0.20;0.20;;;3.50;99.90;;;3.44;100.00;100091.72;4998118;28;20304;-61
2022/12/07 02:47:10;;;;;;;0.10;0.10;;;3.60;99.90;;;3.45;100.00;100080.44;4996079;28;20655;-61
2022/12/07 02:49:39;;;;;;;0.10;0.10;;;3.60;99.90;;;3.50;100.00;100078.84;5011740;28;20254;-60
2022/12/07 02:52:06;;;;;;;0.10;0.10;;;3.60;99.90;;;3.70;100.00;100075.13;5001630;28;20236;-61
2022/12/07 02:54:33;;;;;;;0.35;0.35;;;3.80;99.90;;;3.69;100.00;100055.03;4995045;28;20237;-61
2022/12/07 02:57:08;;;;;;;0.10;0.10;;;3.80;99.90;;;3.72;99.04;100046.41;5011621;28;20241;-61
2022/12/07 03:00:09;;;;;;;0.10;0.10;;;3.90;99.90;;;3.71;98.22;100042.00;5010863;28;20340;-61
2022/12/07 03:03:14;;;;;;;0.10;0.10;;;3.90;99.90;;;3.69;96.88;100028.91;4997207;28;20219;-62
2022/12/07 03:05:59;;;;;;;0.20;0.20;;;3.90;99.90;;;3.65;97.02;100026.13;4924705;28;20320;-62
2022/12/07 03:08:37;;;;;;;0.10;0.10;;;3.80;99.90;;;3.58;97.45;100014.63;5002461;28;20252;-62
2022/12/07 03:11:30;;;;;;;0.10;0.10;;;3.80;99.90;;;3.48;98.92;100033.47;5011227;28;20238;-62
2022/12/07 03:14:03;;;;;;;0.15;0.15;;;3.70;99.90;;;3.39;100.00;100048.88;5006016;28;20250;-61
2022/12/07 03:16:35;;;;;;;0.10;0.10;;;3.60;99.90;;;3.37;100.00;100055.78;5007700;28;20223;-62
2022/12/07 03:19:18;;;;;;;0.20;0.20;;;3.50;99.90;;;3.63;98.45;100060.09;4995545;28;20235;-61
2022/12/07 03:21:53;;;;;;;0.10;0.10;;;3.70;99.90;;;3.70;97.21;100037.63;5007955;28;20289;-61
2022/12/07 03:27:33;;;;;;;0.10;0.10;;;3.90;99.90;;;3.77;95.29;100008.19;4971787;28;20235;-71
2022/12/07 03:30:17;;;;;;;0.20;0.20;;;3.90;99.90;;;3.75;95.24;99994.19;4941130;28;20323;-71
2022/12/07 03:33:14;;;;;;;0.10;0.10;;;3.90;99.90;;;3.76;94.75;100003.81;4927530;28;20288;-71
2022/12/07 03:35:49;;;;;;;0.10;0.10;;;3.90;99.90;;;3.77;94.50;99996.00;4925315;28;20242;-71
2022/12/07 03:38:31;;;;;;;0.10;0.10;;;3.90;99.90;;;3.70;94.80;99982.72;4924734;28;20329;-71
2022/12/07 03:41:08;;;;;;;0.10;0.10;;;3.90;99.90;;;3.71;94.80;99990.59;4906994;28;20238;-71
2022/12/07 03:43:37;;;;;;;0.20;0.20;;;3.90;99.90;;;3.70;94.94;99983.59;4940465;28;20230;-71
2022/12/07 03:46:26;;;;;;;0.10;0.10;;;3.90;99.90;;;3.59;96.23;99999.81;4923172;28;20248;-72
2022/12/07 03:49:30;;;;;;;0.20;0.20;;;3.80;99.90;;;3.52;97.26;100012.69;4934853;28;20248;-71
2022/12/07 03:52:27;;;;;;;0.20;0.20;;;3.70;99.90;;;3.46;98.58;100027.31;4930091;28;20264;-72
2022/12/07 03:55:18;;;;;;;0.15;0.15;;;3.60;99.90;;;3.44;99.04;100036.84;4935304;28;20236;-71
2022/12/07 03:57:49;;;;;;;1.45;0.40;;;3.60;99.90;;;3.45;99.46;100044.72;4949070;28;20234;-71
2022/12/07 04:00:16;;;;;;;0.10;0.10;;;3.60;99.90;;;3.47;99.77;100047.38;4939661;28;20237;-71
2022/12/07 04:02:43;;;;;;;0.10;0.10;;;3.60;99.90;;;3.47;99.79;100044.78;4944918;28;20239;-71
2022/12/07 04:05:11;;;;;;;0.10;0.10;;;3.60;99.90;;;3.46;100.00;100049.09;4934338;28;20257;-70
2022/12/07 04:07:38;;;;;;;0.10;0.10;;;3.60;99.90;;;3.49;99.91;100057.03;4946921;28;20363;-71
2022/12/07 04:10:06;;;;;;;0.10;0.10;;;3.60;99.90;;;3.45;100.00;100060.41;4921083;28;20240;-71
2022/12/07 04:12:32;;;;;;;0.10;0.10;;;3.60;99.90;;;3.44;100.00;100063.84;4918382;28;20229;-72
2022/12/07 04:14:59;;;;;;;0.17;0.17;;;3.60;99.90;;;3.43;100.00;100050.75;4932863;28;20233;-71
2022/12/07 04:17:26;;;;;;;0.10;0.10;;;3.60;99.90;;;3.45;100.00;100049.06;4928700;28;20236;-72
2022/12/07 04:19:53;;;;;;;0.20;0.20;;;3.60;99.90;;;3.48;100.00;100049.16;4925831;29;20316;-71
2022/12/07 04:22:20;;;;;;;0.10;0.10;;;3.60;99.90;;;3.50;100.00;100050.09;4938012;28;20257;-71
2022/12/07 04:24:47;;;;;;;0.25;0.25;;;3.60;99.90;;;3.52;99.88;100049.31;4945112;23;20216;-81
2022/12/07 04:27:14;;;;;;;0.20;0.20;;;3.60;99.90;;;3.54;99.61;100051.97;5010602;28;20232;-82
2022/12/07 04:29:41;;;;;;;0.10;0.10;;;3.70;99.90;;;3.49;99.87;100049.22;5020596;28;20251;-81
2022/12/07 04:32:09;;;;;;;0.10;0.10;;;3.60;99.90;;;3.47;100.00;100042.16;4997530;28;20303;-81
2022/12/07 04:34:36;;;;;;;0.10;0.10;;;4.10;99.90;;;3.48;99.75;100044.81;5012588;28;20231;-81
2022/12/07 04:37:03;;;;;;;0.13;0.13;;;3.60;99.90;;;3.53;100.00;100050.19;5014360;28;20263;-80
2022/12/07 04:39:32;;;;;;;0.10;0.10;;;3.60;99.90;;;3.57;99.11;100048.56;5015747;28;20266;-81
2022/12/07 04:42:01;;;;;;;0.10;0.10;;;3.70;99.90;;;3.56;99.08;100033.72;5014259;28;20293;-78
2022/12/07 04:44:29;;;;;;;0.10;0.10;;;4.20;99.90;;;3.58;99.23;100042.47;5017541;28;20239;-80
2022/12/07 04:46:56;;;;;;;0.10;0.10;;;4.10;99.90;;;3.60;99.26;100038.19;5011044;28;20353;-83
2022/12/07 04:49:25;;;;;;;0.10;0.10;;;3.70;99.90;;;3.59;99.21;100036.41;5011891;28;20323;-80
2022/12/07 04:51:52;;;;;;;0.10;0.10;;;3.70;99.90;;;3.51;99.63;100028.34;5010246;28;20345;-79
2022/12/07 04:54:20;;;;;;;0.10;0.10;;;3.70;99.90;;;3.54;99.73;100033.66;5004310;28;20235;-78
2022/12/07 04:56:47;;;;;;;0.10;0.10;;;3.70;99.90;;;3.49;100.00;100036.13;4998919;28;20235;-76
2022/12/07 04:59:16;;;;;;;0.10;0.10;;;4.10;99.90;;;3.53;100.00;100038.00;5004337;28;20226;-78
2022/12/07 05:01:44;;;;;;;0.10;0.10;;;3.90;99.90;;;3.60;100.00;100053.88;4989165;28;20278;-77
2022/12/07 05:04:11;;;;;;;0.20;0.20;;;4.30;99.90;;;3.63;100.00;100048.75;5000959;28;20238;-77
2022/12/07 05:06:38;;;;;;;0.20;0.20;;;3.70;99.90;;;3.56;100.00;100039.81;5009567;28;20235;-78
2022/12/07 05:09:06;;;;;;;0.20;0.20;;;3.80;99.90;;;3.61;100.00;100038.22;5011048;28;20231;-79
2022/12/07 05:11:39;;;;;;;0.20;0.20;;;;;;;3.70;100.00;100048.09;5016087;28;20244;-80
2022/12/07 05:14:08;;;;;;;0.13;0.13;;;3.80;99.90;;;3.71;100.00;100057.69;5014988;28;20260;-82
2022/12/07 05:16:36;;;;;;;0.10;0.10;;;3.90;99.90;;;3.82;100.00;100061.53;5010635;28;20231;-80
2022/12/07 05:19:04;;;;;;;0.10;0.10;;;;;;;3.88;100.00;100059.09;4989291;28;20240;-80
2022/12/07 05:21:33;;;;;;;0.10;0.10;;;4.00;99.90;;;3.94;100.00;100059.31;5016138;28;20227;-78
2022/12/07 05:24:01;;;;;;;0.15;0.15;;;4.10;99.90;;;3.89;100.00;100052.13;5015982;28;20237;-76
2022/12/07 05:26:30;;;;;;;0.10;0.10;;;4.00;99.90;;;3.89;100.00;100052.13;5017740;28;20221;-80
2022/12/07 05:28:58;;;;;;;0.10;0.10;;;4.00;99.90;;;4.00;100.00;100061.22;5002057;28;20259;-78
2022/12/07 05:31:30;;;;;;;0.20;0.20;;;4.10;99.90;;;4.05;100.00;100070.09;5019117;28;20254;-80
2022/12/07 05:34:00;;;;;;;0.10;0.10;;;4.20;99.90;;;4.08;100.00;100054.47;5005714;28;20294;-79
2022/12/07 05:36:30;;;;;;;0.10;0.10;;;4.20;99.90;;;4.04;100.00;100056.13;5024754;28;20226;-77
2022/12/07 05:39:01;;;;;;;0.20;0.20;;;4.20;99.90;;;4.08;100.00;100063.22;5023887;28;20230;-77
2022/12/07 05:44:48;;;;;;;0.20;0.20;;;4.20;99.90;;;4.12;100.00;100069.41;4984348;28;20762;-78
2022/12/07 05:47:16;;;;;;;0.20;0.20;;;4.30;99.90;;;4.21;100.00;100059.22;4997146;28;20227;-78
2022/12/07 05:49:43;;;;;;;0.10;0.10;;;4.30;99.90;;;4.10;100.00;100050.19;5015875;28;20227;-79
2022/12/07 05:52:10;;;;;;;0.10;0.10;;;4.30;99.90;;;4.07;100.00;100042.25;5022752;28;20300;-78
2022/12/07 05:54:38;;;;;;;0.15;0.15;;;4.20;99.90;;;4.02;100.00;100042.09;5018031;28;20232;-79
2022/12/07 05:57:06;;;;;;;0.10;0.10;;;4.20;99.90;;;3.99;100.00;100047.25;5021339;28;20224;-79
2022/12/07 05:59:33;;;;;;;0.40;0.40;;;4.20;99.90;;;3.98;100.00;100044.59;5031550;28;20223;-79
2022/12/07 06:02:07;;;;;;;0.10;0.10;;;4.20;99.90;;;3.96;100.00;100046.28;5021481;28;20241;-78
2022/12/07 06:04:39;;;;;;;0.20;0.20;;;4.10;99.90;;;3.92;100.00;100054.88;4999542;28;20326;-79
2022/12/07 06:07:07;;;;;;;0.10;0.10;;;4.10;99.90;;;3.98;100.00;100057.66;4990630;28;20231;-78
2022/12/07 06:09:52;;;;;;;0.10;0.10;;;4.10;99.90;;;4.02;100.00;100059.53;4985171;28;20255;-79
2022/12/07 06:12:38;;;;;;;0.10;0.10;;;4.20;99.90;;;3.94;100.00;100059.31;4982150;28;20270;-77
2022/12/07 06:15:06;;;;;;;0.50;0.50;;;4.10;99.90;;;3.86;100.00;100055.53;5009204;28;20294;-78
2022/12/07 06:17:34;;;;;;;0.10;0.10;;;4.00;99.90;;;3.83;100.00;100064.19;5021206;28;20242;-77
2022/12/07 06:20:01;;;;;;;0.10;0.10;;;4.00;99.90;;;3.88;100.00;100061.72;5023255;28;20254;-78
2022/12/07 06:22:29;;;;;;;0.20;0.20;;;4.00;99.90;;;3.82;100.00;100065.03;5026028;28;20234;-78
2022/12/07 06:24:56;;;;;;;0.17;0.17;;;3.90;99.90;;;3.78;100.00;100062.28;5058429;22;20273;-75
2022/12/07 06:27:23;;;;;;;0.20;0.20;;;3.90;99.90;;;3.72;100.00;100072.56;5025033;28;20223;-75
2022/12/07 06:29:50;;;;;;;0.10;0.10;;;3.90;99.90;;;3.76;100.00;100083.16;5024259;28;20237;-75
2022/12/07 06:32:17;;;;;;;0.10;0.10;;;3.90;99.90;;;3.73;100.00;100076.94;5024074;28;20306;-75
2022/12/07 06:34:44;;;;;;;0.10;0.10;;;4.00;99.90;;;3.78;100.00;100080.59;5009798;28;20255;-76
2022/12/07 06:37:11;;;;;;;0.10;0.10;;;3.90;99.90;;;3.79;100.00;100082.34;4989848;28;20227;-75
2022/12/07 06:39:38;;;;;;;0.10;0.10;;;4.00;99.90;;;3.78;100.00;100071.00;5009808;28;20259;-74
2022/12/07 06:42:10;;;;;;;0.10;0.10;;;4.00;99.90;;;3.81;100.00;100086.78;5013038;28;20279;-74
2022/12/07 06:44:37;;;;;;;0.10;0.10;;;4.00;99.90;;;3.84;100.00;100068.59;5007002;28;20291;-73
2022/12/07 06:47:04;;;;;;;0.10;0.10;;;4.00;99.90;;;3.80;100.00;100061.47;4987287;28;20234;-75
2022/12/07 06:50:02;;;;;;;0.10;0.10;;;4.00;99.90;;;3.78;100.00;100062.28;4982763;28;20254;-75
2022/12/07 06:52:30;;;;;;;0.10;0.10;;;3.90;99.90;;;3.83;100.00;100068.53;4965660;28;20232;-75
2022/12/07 06:54:58;;;;;;;0.10;0.10;;;4.00;99.90;;;3.83;100.00;100066.81;5010595;28;20263;-75
2022/12/07 06:57:26;;;;;;;0.10;0.10;;;4.00;99.90;;;3.84;100.00;100072.94;5009212;28;20247;-73
2022/12/07 06:59:53;;;;;;;0.10;0.10;;;3.90;99.90;;;3.82;100.00;100061.53;5011494;28;20236;-74
2022/12/07 07:02:20;;;;;;;0.10;0.10;;;4.00;99.90;;;3.80;100.00;100071.06;4994298;28;20279;-73
2022/12/07 07:04:47;;;;;;;0.10;0.10;;;3.90;99.90;;;3.85;100.00;100067.75;5010018;28;20307;-75
2022/12/07 07:07:14;;;;;;;0.10;0.10;;;4.00;99.90;;;3.90;100.00;100087.91;4999998;28;20267;-73
2022/12/07 07:09:46;;;;;;;0.10;0.10;;;4.00;99.90;;;3.86;100.00;100073.84;5008975;28;20278;-73
2022/12/07 07:12:13;;;;;;;0.10;0.10;;;4.00;99.90;;;3.82;100.00;100074.59;4989462;28;20644;-75
2022/12/07 07:14:40;;;;;;;0.10;0.10;;;4.00;99.90;;;3.82;100.00;100080.72;5010044;28;20227;-76
2022/12/07 07:17:06;;;;;;;0.10;0.10;;;4.00;99.90;;;3.82;100.00;100072.00;5007617;28;20727;-76
2022/12/07 07:19:34;;;;;;;0.10;0.10;;;4.00;99.90;;;3.79;100.00;100071.91;5007203;28;20228;-76
2022/12/07 07:22:01;;;;;;;0.10;0.10;;;4.00;99.90;;;3.80;100.00;100090.25;5005287;28;20270;-74
2022/12/07 07:27:08;;;;;;;0.10;0.10;;;3.90;99.90;;;3.72;100.00;100088.25;4994813;28;20236;-77
2022/12/07 07:29:35;;;;;;;0.10;0.10;;;3.90;99.90;;;3.71;100.00;100091.69;4985164;28;20232;-77
2022/12/07 07:32:02;;;;;;;0.45;0.43;;;3.80;99.90;;;3.70;100.00;100097.78;5006054;28;20319;-78
2022/12/07 07:34:33;;;;;;;0.10;0.10;;;3.80;99.90;;;3.71;100.00;100116.13;5008210;28;20278;-77
2022/12/07 07:37:00;;;;;;;0.10;0.10;;;3.80;99.90;;;3.67;100.00;100100.28;4991506;28;20291;-76
2022/12/07 07:39:27;;;;;;;0.10;0.10;;;3.80;99.90;;;3.65;100.00;100102.84;5007798;28;20296;-77
2022/12/07 07:41:54;;;;;;;0.20;0.20;;;3.80;99.90;;;3.66;100.00;100107.25;5006406;28;20314;-75
2022/12/07 07:44:21;;;;;;;0.10;0.10;;;3.80;99.90;;;3.70;100.00;100122.19;5003851;28;20234;-75
2022/12/07 07:46:48;;;;;;;0.10;0.10;;;3.80;99.90;;;3.71;100.00;100108.28;5009003;28;20282;-76
2022/12/07 07:49:15;;;;;;;0.10;0.10;;;3.80;99.90;;;3.73;100.00;100106.59;5010182;28;20266;-75
2022/12/07 07:51:42;;;;;;;0.20;0.20;;;4.00;99.90;;;3.75;100.00;100111.88;5009672;28;20235;-76
2022/12/07 07:54:10;;;;;;;0.10;0.10;;;3.90;99.90;;;3.79;100.00;100111.13;5004961;28;20332;-77
2022/12/07 07:57:07;;;;;;;0.10;0.10;;;3.90;99.90;;;3.81;100.00;100117.28;5000320;28;20607;-76
2022/12/07 07:59:34;;;;;;;0.10;0.10;;;3.90;99.90;;;3.85;100.00;100121.78;4985979;28;20223;-76
2022/12/07 08:02:01;;;;;;;0.10;0.10;;;4.00;99.90;;;3.87;100.00;100125.34;4991112;28;20650;-77
2022/12/07 08:04:29;;;;;;;0.10;0.10;;;4.00;99.90;;;3.89;100.00;100125.38;5001388;28;20242;-78
2022/12/07 08:06:57;;;;;;;0.10;0.10;;;4.00;99.90;;;3.92;100.00;100122.88;5000871;28;20701;-76
2022/12/07 08:09:27;;;;;;;0.10;0.10;;;4.00;99.90;;;3.92;100.00;100131.63;5004883;28;20231;-77
2022/12/07 08:12:17;;;;;;;1.15;1.00;;;4.10;99.90;;;3.96;100.00;100132.59;5005082;28;20318;-77
2022/12/07 08:14:44;;;;;;;0.10;0.10;;;4.10;99.90;;;4.01;100.00;100138.88;4994009;28;20266;-77
2022/12/07 08:17:12;;;;;;;0.10;0.10;;;4.10;99.90;;;4.03;100.00;100142.41;4998070;28;20802;-76
2022/12/07 08:19:39;;;;;;;0.10;0.10;;;4.10;99.90;;;4.09;100.00;100140.88;4996060;28;20231;-77
2022/12/07 08:22:06;;;;;;;0.10;0.10;;;4.20;99.90;;;4.10;100.00;100144.38;4963476;28;20235;-76
2022/12/07 08:27:09;;;;;;;0.10;0.10;;;4.20;99.90;;;4.13;100.00;100145.34;4982188;28;20720;-76
2022/12/07 08:29:36;;;;;;;0.10;0.10;;;4.20;99.90;;;4.16;100.00;100152.41;4987500;28;20311;-78
2022/12/07 08:32:12;;;;;;;0.73;0.38;;;4.30;99.90;;;4.18;100.00;100151.63;4994533;28;20287;-78
2022/12/07 08:34:46;;;;;;;0.10;0.10;;;4.30;99.90;;;4.22;100.00;100149.09;4971893;28;20318;-78
2022/12/07 08:37:13;;;;;;;0.20;0.20;;;4.30;99.90;;;4.31;100.00;100165.06;4967746;28;20248;-77
2022/12/07 08:39:40;;;;;;;0.10;0.10;;;4.40;99.90;;;4.27;100.00;100155.34;4965291;28;20600;-78
2022/12/07 08:42:07;;;;;;;0.10;0.10;;;4.40;99.90;;;4.27;100.00;100143.16;4952005;28;20222;-78
2022/12/07 08:44:34;;;;;;;0.10;0.10;;;4.40;99.90;;;4.27;100.00;100134.41;4965862;28;20233;-76
2022/12/07 08:47:06;;;;;;;0.40;0.40;;;4.40;99.90;;;4.24;100.00;100150.91;4968802;28;20252;-76
2022/12/07 08:49:44;;;;;;;0.10;0.10;;;4.40;99.90;;;4.26;100.00;100150.97;4969805;28;20232;-76
2022/12/07 08:52:11;;;;;;;0.10;0.10;;;4.40;99.90;;;4.27;100.00;100145.75;4957291;28;20224;-75
2022/12/07 08:54:41;;;;;;;0.10;0.10;;;4.40;99.90;;;4.28;100.00;100138.81;4956530;28;20268;-76
2022/12/07 08:57:09;;;;;;;0.10;0.10;;;4.40;99.90;;;4.37;100.00;100149.53;4951540;28;20258;-76
2022/12/07 08:59:37;;;;;;;0.43;0.43;;;4.50;99.90;;;4.40;100.00;100155.75;4959706;28;20304;-76
2022/12/07 09:02:05;;;;;;;0.10;0.10;;;4.50;99.90;;;4.42;100.00;100153.19;4973165;28;20252;-74
2022/12/07 09:04:33;;;;;;;0.20;0.20;;;4.40;99.90;;;4.43;100.00;100155.84;4964878;28;20629;-73
2022/12/07 09:07:00;;;;;;;0.10;0.10;;;4.60;99.90;;;4.47;100.00;100160.31;4971633;28;20337;-74
2022/12/07 09:09:27;;;;;;;0.10;0.10;;;4.60;99.90;;;4.49;100.00;100155.13;4954546;28;20287;-74
2022/12/07 09:11:54;;;;;;;0.20;0.20;;;4.60;99.90;;;4.50;100.00;100154.28;4979850;28;20232;-75
2022/12/07 09:14:22;;;;;;;0.10;0.10;;;4.60;99.90;;;4.47;100.00;100154.19;4964710;28;20284;-75
2022/12/07 09:16:50;;;;;;;0.10;0.10;;;4.60;99.90;;;4.50;100.00;100159.53;4964937;28;20312;-76
2022/12/07 09:19:17;;;;;;;0.10;0.10;;;4.60;99.90;;;4.49;100.00;100158.63;4943203;28;20272;-76
2022/12/07 09:21:44;;;;;;;0.20;0.20;;;4.60;99.90;;;4.50;100.00;100162.16;4943735;28;20256;-76
2022/12/07 09:24:13;;;;;;;0.10;0.10;;;4.60;99.90;;;4.55;100.00;100165.78;4967606;28;20257;-75
2022/12/07 09:26:40;;;;;;;0.10;0.10;;;4.60;99.90;;;4.52;100.00;100160.47;5023246;23;20230;-79
2022/12/07 09:29:07;;;;;;;0.10;0.10;;;4.60;99.90;;;4.58;100.00;100171.09;5023669;28;20239;-78
2022/12/07 09:31:37;;;;;;;0.10;0.10;;;4.70;99.90;;;4.56;100.00;100167.56;5003999;28;20226;-79
2022/12/07 09:34:07;;;;;;;0.13;0.13;;;4.70;99.90;;;4.61;100.00;100172.94;5032997;28;20244;-78
2022/12/07 09:36:34;;;;;;;1.10;0.40;;;4.70;99.90;;;4.67;100.00;100181.84;5004208;28;20234;-79
2022/12/07 09:39:04;;;;;;;0.10;0.10;;;4.80;99.90;;;4.76;100.00;100194.31;5037643;28;20254;-79
2022/12/07 09:41:32;;;;;;;0.10;0.10;;;4.80;99.90;;;4.83;100.00;100194.53;5042945;28;20262;-79
2022/12/07 09:44:33;;;;;;;0.10;0.10;;;4.90;99.90;;;4.92;100.00;100193.91;5021405;28;20767;-74
2022/12/07 09:47:09;;;;;;;0.10;0.10;;;5.00;99.90;;;5.01;100.00;100194.16;4980390;28;20344;-78
2022/12/07 09:49:36;;;;;;;0.10;0.10;;;5.10;99.90;;;5.02;100.00;100181.94;4997970;28;20234;-77
2022/12/07 09:52:09;;;;;;;0.10;0.10;;;5.10;99.90;;;5.08;100.00;100174.25;5025717;28;20242;-76
2022/12/07 09:54:41;;;;;;;0.20;0.20;;;5.20;99.90;;;5.22;100.00;100179.88;5021571;28;20327;-75
2022/12/07 09:57:12;;;;;;;0.10;0.10;;;5.30;99.90;;;5.14;100.00;100158.66;5002916;28;20330;-76
2022/12/07 10:00:39;;;;;;;0.10;0.10;;;5.30;99.90;;;5.19;100.00;100154.44;5025287;28;20690;-79
2022/12/07 10:03:11;;;;;;;0.10;0.10;;;5.30;99.90;;;5.29;100.00;100150.34;5025616;28;20239;-78
2022/12/07 10:05:51;;;;;;;0.10;0.10;;;5.40;99.90;;;5.20;100.00;100119.53;5024667;28;20382;-78
2022/12/07 10:08:18;;;;;;;0.10;0.10;;;5.30;99.90;;;5.24;100.00;100125.75;5030254;28;20250;-79
2022/12/07 10:10:55;;;;;;;0.45;0.45;;;5.30;99.90;;;5.27;100.00;100120.59;5038537;28;20230;-76
2022/12/07 10:13:35;;;;;;;0.10;0.10;;;5.40;99.90;;;5.32;100.00;100127.72;5047557;28;20586;-76
2022/12/07 10:16:37;;;;;;;0.10;0.10;;;5.40;99.90;;;5.28;99.78;100107.50;5047647;28;20250;-77
2022/12/07 10:19:27;;;;;;;0.10;0.10;;;5.50;99.90;;;5.30;99.21;100103.19;5049394;28;20320;-76
2022/12/07 10:22:11;;;;;;;0.20;0.20;;;5.50;99.90;;;5.28;98.92;100099.66;5033963;28;20249;-76
2022/12/07 10:27:31;;;;;;;0.10;0.10;;;5.40;99.90;;;5.29;99.10;100104.03;4950389;28;20260;-76
2022/12/07 10:29:59;;;;;;;0.10;0.10;;;5.40;99.90;;;5.37;99.24;100118.22;4965386;28;20239;-76
2022/12/07 10:32:36;;;;;;;0.10;0.10;;;5.50;99.90;;;5.37;98.70;100104.22;4954665;28;20229;-77
2022/12/07 10:35:43;;;;;;;0.10;0.10;;;5.50;99.90;;;5.37;98.60;100099.00;4989977;28;20216;-77
2022/12/07 10:38:17;;;;;;;0.10;0.10;;;5.50;99.90;;;5.29;98.48;100093.56;4957769;28;20739;-76
2022/12/07 10:40:44;;;;;;;0.17;0.17;;;5.40;99.90;;;5.24;98.10;100089.94;4988102;28;20352;-75
2022/12/07 10:43:12;;;;;;;0.28;0.28;;;5.40;99.90;;;5.30;98.22;100091.81;4991775;28;20298;-75
2022/12/07 10:46:07;;;;;;;0.10;0.10;;;5.40;99.90;;;5.38;98.99;100103.38;4990147;28;20319;-75
2022/12/07 10:49:10;;;;;;;0.10;0.10;;;5.60;99.90;;;5.37;98.71;100102.50;4978271;28;20259;-75
2022/12/07 10:52:02;;;;;;;0.10;0.10;;;5.50;99.90;;;5.38;98.22;100093.78;4970015;28;20337;-75
2022/12/07 10:54:48;;;;;;;0.10;0.10;;;5.50;99.90;;;5.40;96.32;100068.47;4984659;28;20712;-75
2022/12/07 10:57:29;;;;;;;0.10;0.10;;;5.50;99.90;;;5.49;94.80;100048.56;4952017;28;20225;-76
2022/12/07 11:00:19;;;;;;;0.10;0.10;;;5.60;99.90;;;5.51;93.97;100024.16;4986136;28;20559;-76